Time;durP1;ratioP1;P1;durP2;ratioP2;P2;SDS_P1;SDS_P2;PMS_P1;PMS_P2;Temp;Humidity;BMP_temperature;BMP_pressure;BME280_temperature;BME280_humidity;BME280_pressure;Samples;Min_cycle;Max_cycle;Signal;HPM_P1;HPM_P2
2022/08/16 00:00:50;;;;;;;5.75;5.25;;;;;;;13.96;100.00;92575.22;2135905;27;20021;-67
2022/08/16 00:01:51;;;;;;;8.30;5.65;;;;;;;13.93;100.00;92571.50;2135853;27;20033;-67
2022/08/16 00:02:54;;;;;;;7.15;5.68;;;;;;;13.94;100.00;92572.25;2136073;27;20022;-66
2022/08/16 00:03:54;;;;;;;8.38;5.35;;;;;;;13.92;100.00;92566.59;2131946;27;20113;-67
2022/08/16 00:04:55;;;;;;;7.88;5.75;;;;;;;13.94;100.00;92581.03;2126723;27;20083;-67
2022/08/16 00:05:56;;;;;;;9.38;5.75;;;;;;;13.94;100.00;92570.28;2126867;27;20453;-66
2022/08/16 00:06:58;;;;;;;7.65;5.45;;;;;;;13.88;100.00;92580.16;2122136;27;20106;-67
2022/08/16 00:07:58;;;;;;;7.55;5.85;;;;;;;13.86;100.00;92579.84;2122688;27;20034;-67
2022/08/16 00:08:59;;;;;;;7.03;5.22;;;;;;;13.89;100.00;92584.34;2131806;27;20026;-67
2022/08/16 00:10:02;;;;;;;8.13;5.80;;;;;;;13.89;100.00;92584.34;2135869;27;20023;-67
2022/08/16 00:11:09;;;;;;;7.47;6.20;;;;;;;13.86;100.00;92577.91;2135932;27;20033;-67
2022/08/16 00:12:10;;;;;;;8.05;6.13;;;;;;;13.84;100.00;92577.63;2135761;27;20027;-67
2022/08/16 00:13:11;;;;;;;6.22;5.22;;;;;;;13.86;100.00;92585.22;2138386;27;20022;-67
2022/08/16 00:14:15;;;;;;;9.50;5.60;;;;;;;13.89;100.00;92578.22;2133218;27;20071;-67
2022/08/16 00:15:25;;;;;;;8.02;5.55;;;;;;;13.90;100.00;92583.13;2133739;27;20061;-67
2022/08/16 00:16:28;;;;;;;8.15;5.88;;;;;;;13.85;100.00;92581.78;2136047;27;20149;-66
2022/08/16 00:17:29;;;;;;;6.22;5.28;;;;;;;13.72;100.00;92577.78;2131671;27;20022;-67
2022/08/16 00:18:30;;;;;;;6.57;5.47;;;;;;;13.74;100.00;92578.84;2135830;27;20022;-68
2022/08/16 00:19:33;;;;;;;7.45;5.72;;;;;;;13.79;100.00;92583.59;2135806;27;20026;-67
2022/08/16 00:20:34;;;;;;;8.05;6.05;;;;;;;13.79;100.00;92588.97;2135005;27;20029;-68
2022/08/16 00:21:35;;;;;;;6.60;5.72;;;;;;;13.67;100.00;92576.44;2135909;27;20030;-67
2022/08/16 00:22:39;;;;;;;8.10;6.05;;;;;;;13.68;100.00;92582.56;2135719;27;20487;-67
2022/08/16 00:23:40;;;;;;;7.07;5.20;;;;;;;13.77;100.00;92587.91;2135803;27;20109;-68
2022/08/16 00:24:41;;;;;;;5.95;4.88;;;;;;;13.81;100.00;92581.19;2135680;27;20025;-67
2022/08/16 00:25:43;;;;;;;7.40;5.50;;;;;;;13.83;100.00;92581.50;2134858;27;20022;-67
2022/08/16 00:26:44;;;;;;;7.28;6.00;;;;;;;13.76;100.00;92576.44;2135716;27;20079;-67
2022/08/16 00:27:45;;;;;;;7.30;5.20;;;;;;;13.80;100.00;92579.72;2135589;27;20029;-68
2022/08/16 00:28:46;;;;;;;5.90;5.30;;;;;;;13.75;100.00;92587.63;2135765;27;20049;-67
2022/08/16 00:29:47;;;;;;;7.63;5.75;;;;;;;13.77;100.00;92588.66;2135719;27;20108;-67
2022/08/16 00:30:48;;;;;;;7.80;5.00;;;;;;;13.82;100.00;92584.63;2134975;27;20035;-67
2022/08/16 00:31:51;;;;;;;7.05;5.70;;;;;;;13.82;100.00;92593.44;2135838;27;20048;-66
2022/08/16 00:32:55;;;;;;;9.07;6.00;;;;;;;13.76;100.00;92594.50;2135601;27;20022;-67
2022/08/16 00:33:56;;;;;;;6.70;6.10;;;;;;;13.74;100.00;92580.75;2135733;27;20019;-67
2022/08/16 00:34:57;;;;;;;9.90;6.18;;;;;;;13.67;100.00;92589.13;2135674;27;20018;-67
2022/08/16 00:36:01;;;;;;;7.10;5.95;;;;;;;13.64;100.00;92590.00;2128649;27;20085;-69
2022/08/16 00:37:02;;;;;;;7.35;5.93;;;;;;;13.58;100.00;92590.59;2135805;27;20022;-66
2022/08/16 00:38:05;;;;;;;11.50;6.88;;;;;;;13.57;100.00;92588.38;2135675;27;20022;-66
2022/08/16 00:39:06;;;;;;;10.48;5.55;;;;;;;13.57;100.00;92589.13;2135868;27;20106;-68
2022/08/16 00:40:08;;;;;;;7.28;5.70;;;;;;;13.53;100.00;92580.47;2135697;27;20030;-67
2022/08/16 00:41:10;;;;;;;8.55;6.45;;;;;;;13.67;100.00;92581.06;2133340;27;20368;-67
2022/08/16 00:42:10;;;;;;;8.10;6.15;;;;;;;13.72;100.00;92577.78;2126469;27;20031;-66
2022/08/16 00:43:26;;;;;;;8.60;5.93;;;;;;;13.77;100.00;92579.84;2126305;27;20807;-66
2022/08/16 00:44:27;;;;;;;8.98;5.68;;;;;;;13.70;100.00;92575.56;2135557;27;20026;-65
2022/08/16 00:45:49;;;;;;;7.28;6.03;;;;;;;13.76;100.00;92581.06;2131342;27;20022;-65
2022/08/16 00:47:00;;;;;;;6.63;5.63;;;;;;;13.81;100.00;92575.81;2135037;27;20033;-65
2022/08/16 00:48:04;;;;;;;8.10;6.45;;;;;;;13.80;100.00;92578.97;2131499;27;20063;-68
2022/08/16 00:49:09;;;;;;;7.15;5.65;;;;;;;13.84;100.00;92579.56;2135546;27;20175;-67
2022/08/16 00:50:10;;;;;;;6.40;5.78;;;;;;;13.91;100.00;92581.94;2135623;27;20037;-67
2022/08/16 00:51:13;;;;;;;6.30;5.70;;;;;;;13.97;100.00;92585.53;2135513;27;20030;-66
2022/08/16 00:52:15;;;;;;;6.07;5.57;;;;;;;14.02;100.00;92573.41;2134645;27;20030;-65
2022/08/16 00:53:17;;;;;;;7.97;6.38;;;;;;;13.98;100.00;92584.31;2135397;27;20034;-68
2022/08/16 00:54:19;;;;;;;6.43;5.80;;;;;;;14.09;100.00;92581.94;2135054;27;20034;-65
2022/08/16 00:55:24;;;;;;;9.43;5.95;;;;;;;14.14;100.00;92582.53;2125392;27;20030;-66
2022/08/16 00:56:36;;;;;;;9.55;6.40;;;;;;;14.15;100.00;92584.00;2126611;27;20057;-66
2022/08/16 00:57:37;;;;;;;9.32;6.20;;;;;;;14.09;100.00;92578.47;2129112;27;20026;-67
2022/08/16 00:58:43;;;;;;;9.82;6.30;;;;;;;14.21;100.00;92582.19;2135397;27;20026;-68
2022/08/16 00:59:44;;;;;;;13.43;5.90;;;;;;;14.26;100.00;92582.31;2135572;27;20054;-66
2022/08/16 01:00:48;;;;;;;9.27;5.95;;;;;;;14.25;100.00;92572.03;2135490;27;20030;-66
2022/08/16 01:01:50;;;;;;;7.78;5.68;;;;;;;14.19;100.00;92579.97;2135470;27;20022;-66
2022/08/16 01:02:51;;;;;;;6.85;5.97;;;;;;;14.15;100.00;92584.00;2134645;27;20026;-66
2022/08/16 01:03:53;;;;;;;8.10;5.60;;;;;;;14.17;100.00;92581.59;2135356;27;20075;-66
2022/08/16 01:04:54;;;;;;;10.30;6.28;;;;;;;14.22;100.00;92581.72;2135386;27;20027;-66
2022/08/16 01:05:56;;;;;;;9.45;6.03;;;;;;;14.17;100.00;92579.66;2135479;27;20026;-66
2022/08/16 01:06:59;;;;;;;6.88;5.72;;;;;;;14.21;100.00;92579.50;2135505;27;20460;-65
2022/08/16 01:08:01;;;;;;;8.13;6.13;;;;;;;14.22;100.00;92583.69;2127222;27;20030;-66
2022/08/16 01:09:05;;;;;;;7.45;6.00;;;;;;;14.18;100.00;92583.09;2135296;27;20023;-66
2022/08/16 01:10:06;;;;;;;7.45;6.10;;;;;;;14.21;100.00;92582.19;2135400;27;20101;-66
2022/08/16 01:11:07;;;;;;;8.68;5.93;;;;;;;14.25;100.00;92583.53;2126228;27;20118;-66
2022/08/16 01:12:09;;;;;;;8.45;6.07;;;;;;;14.23;100.00;92580.56;2126174;27;20548;-65
2022/08/16 01:13:17;;;;;;;6.30;5.70;;;;;;;14.42;100.00;92580.50;2133930;27;20165;-67
2022/08/16 01:14:23;;;;;;;9.02;6.07;;;;;;;14.46;100.00;92589.91;2135246;27;20110;-68
2022/08/16 01:15:25;;;;;;;10.85;5.65;;;;;;;14.40;100.00;92582.88;2135021;27;20115;-65
2022/08/16 01:16:28;;;;;;;7.28;6.47;;;;;;;14.55;100.00;92581.81;2135445;27;20039;-65
2022/08/16 01:17:30;;;;;;;10.30;6.60;;;;;;;14.55;100.00;92578.41;2131272;27;20421;-66
2022/08/16 01:18:41;;;;;;;7.63;6.10;;;;;;;14.44;100.00;92581.53;2133830;27;20117;-66
2022/08/16 01:19:47;;;;;;;7.97;6.30;;;;;;;14.44;100.00;92578.09;2135220;27;20026;-66
2022/08/16 01:20:59;;;;;;;7.57;5.65;;;;;;;14.47;100.00;92580.63;2135320;27;20082;-68
2022/08/16 01:22:08;;;;;;;6.38;5.75;;;;;;;14.45;100.00;92580.34;2131606;27;20030;-66
2022/08/16 01:23:44;;;;;;;6.43;5.78;;;;;;;14.43;100.00;92585.41;2135441;27;20029;-66
2022/08/16 01:24:50;;;;;;;7.93;5.88;;;;;;;14.42;100.00;92593.94;2092537;27;20032;-66
2022/08/16 01:25:52;;;;;;;7.47;5.78;;;;;;;14.45;100.00;92595.75;2134457;27;20484;-68
2022/08/16 01:26:59;;;;;;;7.72;6.78;;;;;;;14.46;100.00;92589.16;2135328;27;20031;-69
2022/08/16 01:28:08;;;;;;;8.90;6.20;;;;;;;14.47;100.00;92591.38;2122314;27;20030;-67
2022/08/16 01:29:16;;;;;;;8.60;6.43;;;;;;;14.45;100.00;92598.44;2125756;27;20027;-66
2022/08/16 01:30:20;;;;;;;6.82;6.05;;;;;;;14.44;100.00;92589.59;2135166;27;20030;-68
2022/08/16 01:31:22;;;;;;;6.85;6.15;;;;;;;14.38;100.00;92591.41;2135356;27;20707;-67
2022/08/16 01:32:23;;;;;;;9.48;6.30;;;;;;;14.37;100.00;92592.63;2135380;27;20022;-66
2022/08/16 01:33:24;;;;;;;6.72;5.80;;;;;;;14.35;100.00;92595.00;2135277;27;20030;-67
2022/08/16 01:34:25;;;;;;;10.20;6.47;;;;;;;14.33;100.00;92597.41;2134273;27;20051;-66
2022/08/16 01:35:32;;;;;;;8.20;6.95;;;;;;;14.30;100.00;92595.59;2135128;27;20105;-66
2022/08/16 01:36:34;;;;;;;8.68;6.18;;;;;;;14.34;100.00;92590.81;2131727;27;20113;-66
2022/08/16 01:37:41;;;;;;;8.05;6.40;;;;;;;14.38;100.00;92590.66;2135294;27;20379;-66
2022/08/16 01:38:45;;;;;;;7.47;6.57;;;;;;;14.40;100.00;92593.63;2135218;27;20426;-66
2022/08/16 01:39:45;;;;;;;9.00;6.63;;;;;;;14.40;100.00;92599.00;2133650;27;20105;-65
2022/08/16 01:40:49;;;;;;;9.38;6.72;;;;;;;14.38;100.00;92599.47;2135179;27;20022;-66
2022/08/16 01:41:50;;;;;;;8.45;6.05;;;;;;;14.39;100.00;92594.84;2136288;27;20416;-68
2022/08/16 01:42:53;;;;;;;7.18;5.70;;;;;;;14.35;100.00;92600.38;2135126;27;20193;-65
2022/08/16 01:43:54;;;;;;;7.38;6.60;;;;;;;14.33;100.00;92602.78;2135237;27;20045;-65
2022/08/16 01:44:55;;;;;;;7.88;6.45;;;;;;;14.32;100.00;92601.28;2132722;27;20018;-66
2022/08/16 01:45:58;;;;;;;7.95;6.43;;;;;;;14.28;100.00;92601.44;2135200;27;20513;-66
2022/08/16 01:46:59;;;;;;;7.25;6.53;;;;;;;14.36;100.00;92608.00;2131147;27;20455;-67
2022/08/16 01:48:01;;;;;;;6.93;6.22;;;;;;;14.39;100.00;92605.59;2135617;27;20018;-65
2022/08/16 01:49:09;;;;;;;10.02;6.68;;;;;;;14.35;100.00;92598.44;2135156;27;20023;-66
2022/08/16 01:50:11;;;;;;;8.20;6.05;;;;;;;14.48;100.00;92603.66;2130889;27;20613;-66
2022/08/16 01:51:15;;;;;;;8.27;6.70;;;;;;;14.37;100.00;92589.94;2135120;27;20034;-66
2022/08/16 01:52:18;;;;;;;8.88;7.18;;;;;;;14.35;100.00;92595.00;2135007;27;20031;-66
2022/08/16 01:53:19;;;;;;;7.65;6.10;;;;;;;14.29;100.00;92597.56;2134967;27;20472;-67
2022/08/16 01:54:21;;;;;;;6.82;5.90;;;;;;;14.38;100.00;92596.03;2134860;27;20026;-66
2022/08/16 01:55:23;;;;;;;8.95;6.40;;;;;;;14.36;100.00;92591.13;2121317;27;20042;-65
2022/08/16 01:56:25;;;;;;;8.63;6.28;;;;;;;14.38;100.00;92590.66;2126186;27;20023;-66
2022/08/16 01:57:27;;;;;;;8.07;7.00;;;;;;;14.39;100.00;92592.91;2135054;27;20030;-66
2022/08/16 01:58:28;;;;;;;7.35;6.57;;;;;;;14.31;100.00;92597.88;2130880;27;20026;-66
2022/08/16 01:59:30;;;;;;;7.07;6.38;;;;;;;14.28;100.00;92593.38;2135024;27;20022;-65
2022/08/16 02:00:31;;;;;;;6.97;6.18;;;;;;;14.31;100.00;92595.19;2137448;27;20105;-66
2022/08/16 02:01:32;;;;;;;8.52;6.10;;;;;;;14.40;100.00;92599.00;2134942;27;20041;-66
2022/08/16 02:02:33;;;;;;;6.60;5.90;;;;;;;14.42;100.00;92597.38;2131652;27;20092;-66
2022/08/16 02:03:34;;;;;;;11.35;6.60;;;;;;;14.35;100.00;92598.44;2135016;27;20115;-67
2022/08/16 02:04:35;;;;;;;6.55;5.90;;;;;;;14.40;100.00;92597.09;2135008;27;20031;-65
2022/08/16 02:05:39;;;;;;;8.70;6.47;;;;;;;14.36;100.00;92596.50;2124622;27;20031;-66
2022/08/16 02:06:40;;;;;;;10.70;6.78;;;;;;;14.39;100.00;92597.53;2123509;27;20026;-66
2022/08/16 02:07:42;;;;;;;9.20;7.35;;;;;;;14.34;100.00;92596.19;2135093;27;20371;-66
2022/08/16 02:08:43;;;;;;;7.35;6.60;;;;;;;14.40;100.00;92593.63;2134974;27;20090;-66
2022/08/16 02:09:46;;;;;;;7.53;6.10;;;;;;;14.43;100.00;92590.78;2125887;27;20072;-66
2022/08/16 02:10:47;;;;;;;6.95;6.25;;;;;;;14.43;100.00;92582.72;2125728;27;20130;-66
2022/08/16 02:11:56;;;;;;;8.93;6.15;;;;;;;14.47;100.00;92587.94;2133692;27;20026;-67
2022/08/16 02:14:57;;;;;;;;;;;;;;;14.48;100.00;92586.75;2143020;27;20539;-67
2022/08/16 02:15:58;;;;;;;8.05;6.95;;;;;;;14.41;100.00;92581.69;2129517;27;20328;-65
2022/08/16 02:17:02;;;;;;;7.63;5.93;;;;;;;14.46;100.00;92581.81;2124439;27;20030;-65
2022/08/16 02:18:04;;;;;;;9.68;7.00;;;;;;;14.41;100.00;92585.13;2129456;27;20031;-66
2022/08/16 02:19:05;;;;;;;9.10;6.70;;;;;;;14.41;100.00;92579.75;2138241;27;20034;-65
2022/08/16 02:20:07;;;;;;;8.35;6.32;;;;;;;14.39;100.00;92581.41;2138163;27;20022;-65
2022/08/16 02:21:09;;;;;;;8.00;6.47;;;;;;;14.42;100.00;92583.94;2137946;27;20022;-66
2022/08/16 02:22:13;;;;;;;8.88;6.45;;;;;;;14.35;100.00;92584.25;2123780;27;20020;-65
2022/08/16 02:23:16;;;;;;;6.68;5.80;;;;;;;14.34;100.00;92577.38;2129295;27;20034;-67
2022/08/16 02:24:18;;;;;;;8.55;6.57;;;;;;;14.31;100.00;92584.41;2138103;27;20049;-65
2022/08/16 02:25:19;;;;;;;9.77;6.57;;;;;;;14.31;100.00;92580.97;2138155;27;20035;-66
2022/08/16 02:26:19;;;;;;;7.63;6.40;;;;;;;14.28;100.00;92584.56;2137924;27;20046;-65
2022/08/16 02:27:21;;;;;;;9.95;6.35;;;;;;;14.18;100.00;92583.09;2136626;27;20334;-66
2022/08/16 02:28:23;;;;;;;8.73;6.03;;;;;;;14.17;100.00;92587.72;2138131;27;20326;-66
2022/08/16 02:29:24;;;;;;;8.73;5.90;;;;;;;14.18;100.00;92583.84;2138063;27;20032;-66
2022/08/16 02:30:28;;;;;;;7.20;6.35;;;;;;;14.13;100.00;92583.69;2138023;27;20394;-69
2022/08/16 02:31:29;;;;;;;7.13;6.43;;;;;;;14.05;100.00;92586.72;2129657;27;20026;-66
2022/08/16 02:32:30;;;;;;;7.38;6.07;;;;;;;13.86;100.00;92579.84;2134139;27;20073;-67
2022/08/16 02:33:31;;;;;;;7.30;6.30;;;;;;;13.86;100.00;92580.59;2138009;27;20077;-68
2022/08/16 02:34:32;;;;;;;6.65;6.03;;;;;;;13.91;100.00;92583.88;2138042;27;20360;-66
2022/08/16 02:35:34;;;;;;;8.32;6.15;;;;;;;13.92;100.00;92580.00;2138009;27;20026;-66
2022/08/16 02:36:34;;;;;;;8.45;6.40;;;;;;;13.81;100.00;92575.81;2137761;27;20034;-67
2022/08/16 02:37:36;;;;;;;9.68;6.57;;;;;;;13.74;100.00;92578.06;2135568;27;20375;-66
2022/08/16 02:38:38;;;;;;;9.25;7.00;;;;;;;13.74;100.00;92584.19;2138002;27;20034;-66
2022/08/16 02:39:39;;;;;;;10.48;5.97;;;;;;;13.79;100.00;92582.84;2128722;27;20045;-65
2022/08/16 02:40:41;;;;;;;7.22;6.28;;;;;;;13.71;100.00;92577.03;2128773;27;20452;-66
2022/08/16 02:41:48;;;;;;;7.38;6.38;;;;;;;13.64;100.00;92579.28;2137910;27;20023;-66
2022/08/16 02:42:49;;;;;;;6.72;6.10;;;;;;;13.69;100.00;92582.09;2134255;27;20034;-65
2022/08/16 02:43:50;;;;;;;10.85;6.35;;;;;;;13.57;100.00;92585.69;2136934;27;20027;-66
2022/08/16 02:44:51;;;;;;;6.13;5.63;;;;;;;13.62;100.00;92570.94;2137893;27;20023;-66
2022/08/16 02:45:52;;;;;;;8.73;6.55;;;;;;;13.48;100.00;92583.75;2137943;27;20058;-66
2022/08/16 02:46:53;;;;;;;6.60;6.00;;;;;;;13.51;100.00;92588.22;2137860;27;20018;-66
2022/08/16 02:47:54;;;;;;;6.93;6.22;;;;;;;13.51;100.00;92580.16;2133980;27;20022;-66
2022/08/16 02:48:57;;;;;;;6.85;5.53;;;;;;;13.39;100.00;92578.38;2137265;27;20452;-65
2022/08/16 02:49:59;;;;;;;5.97;5.45;;;;;;;13.31;100.00;92579.84;2129329;27;20479;-65
2022/08/16 02:51:03;;;;;;;7.95;5.85;;;;;;;13.15;100.00;92577.41;2137873;27;20121;-68
2022/08/16 02:52:06;;;;;;;6.63;5.50;;;;;;;13.14;100.00;92575.94;2137737;27;20105;-67
2022/08/16 02:53:07;;;;;;;6.68;5.90;;;;;;;13.13;100.00;92577.88;2136407;27;20049;-68
2022/08/16 02:54:10;;;;;;;6.75;5.47;;;;;;;13.00;100.00;92569.94;2128321;27;20035;-68
2022/08/16 02:55:12;;;;;;;6.28;5.63;;;;;;;13.06;100.00;92576.19;2128858;27;20139;-66
2022/08/16 02:56:15;;;;;;;7.57;5.95;;;;;;;13.00;100.00;92575.31;2137870;27;20031;-67
2022/08/16 02:57:18;;;;;;;7.82;6.00;;;;;;;13.03;100.00;92573.66;2137644;27;20083;-66
2022/08/16 02:58:21;;;;;;;9.40;6.38;;;;;;;13.01;100.00;92576.78;2134875;27;20044;-66
2022/08/16 02:59:23;;;;;;;7.20;6.18;;;;;;;12.96;100.00;92569.34;2136924;27;20463;-68
2022/08/16 03:00:24;;;;;;;6.35;5.35;;;;;;;12.70;100.00;92571.50;2137798;27;20027;-66
2022/08/16 03:01:30;;;;;;;8.98;5.88;;;;;;;12.67;100.00;92571.63;2137865;27;20075;-64
2022/08/16 03:02:30;;;;;;;6.32;5.68;;;;;;;12.73;100.00;92567.16;2129992;27;20429;-65
2022/08/16 03:03:33;;;;;;;6.10;5.60;;;;;;;12.58;100.00;92567.72;2135330;27;20083;-65
2022/08/16 03:04:34;;;;;;;7.75;6.00;;;;;;;12.59;100.00;92569.19;2137982;27;20031;-68
2022/08/16 03:05:35;;;;;;;6.20;5.18;;;;;;;12.54;100.00;92569.78;2137930;27;20019;-65
2022/08/16 03:06:36;;;;;;;7.55;5.78;;;;;;;12.56;100.00;92566.69;2137801;27;20144;-66
2022/08/16 03:07:38;;;;;;;7.35;6.22;;;;;;;12.49;100.00;92569.63;2137552;27;20026;-65
2022/08/16 03:08:39;;;;;;;6.05;5.55;;;;;;;12.49;100.00;92566.94;2124842;27;20045;-66
2022/08/16 03:09:40;;;;;;;7.95;6.45;;;;;;;12.60;100.00;92556.56;2123599;27;20468;-66
2022/08/16 03:10:41;;;;;;;8.02;5.95;;;;;;;12.68;100.00;92562.38;2137763;27;20058;-68
2022/08/16 03:11:43;;;;;;;6.93;6.20;;;;;;;12.61;100.00;92563.41;2137710;27;20471;-67
2022/08/16 03:12:45;;;;;;;9.07;6.18;;;;;;;12.73;100.00;92559.13;2128163;27;20481;-66
2022/08/16 03:13:52;;;;;;;7.10;5.78;;;;;;;12.88;100.00;92556.63;2127076;27;20050;-66
2022/08/16 03:14:53;;;;;;;8.52;6.03;;;;;;;12.79;100.00;92552.75;2127401;27;20130;-68
2022/08/16 03:15:54;;;;;;;6.68;5.95;;;;;;;12.73;100.00;92551.84;2128571;27;20528;-67
2022/08/16 03:16:55;;;;;;;7.40;5.53;;;;;;;12.61;100.00;92558.06;2129080;27;20031;-67
2022/08/16 03:17:56;;;;;;;6.47;5.78;;;;;;;12.38;100.00;92566.59;2128987;27;20023;-66
2022/08/16 03:18:57;;;;;;;6.05;5.43;;;;;;;12.45;100.00;92560.97;2127478;27;20106;-66
2022/08/16 03:19:58;;;;;;;8.43;6.53;;;;;;;12.51;100.00;92559.97;2120065;27;20364;-66
2022/08/16 03:20:59;;;;;;;8.05;6.07;;;;;;;12.29;100.00;92557.34;2128408;27;20070;-66
2022/08/16 03:22:00;;;;;;;8.80;6.35;;;;;;;12.23;100.00;92559.09;2129193;27;20057;-68
2022/08/16 03:23:02;;;;;;;6.35;5.75;;;;;;;12.43;100.00;92553.38;2128961;27;20457;-66
2022/08/16 03:24:05;;;;;;;8.23;6.05;;;;;;;12.38;100.00;92555.88;2128912;27;20801;-67
2022/08/16 03:25:11;;;;;;;6.82;6.22;;;;;;;12.12;100.00;92552.63;2125246;27;20038;-68
2022/08/16 03:26:12;;;;;;;6.55;5.72;;;;;;;12.14;100.00;92556.34;2123443;27;20034;-66
2022/08/16 03:27:13;;;;;;;8.48;5.97;;;;;;;12.25;100.00;92554.03;2123425;27;20068;-65
2022/08/16 03:28:14;;;;;;;6.43;5.82;;;;;;;12.19;100.00;92547.00;2123223;27;20022;-66
2022/08/16 03:29:15;;;;;;;6.60;6.00;;;;;;;12.22;100.00;92552.22;2122353;27;20081;-68
2022/08/16 03:30:28;;;;;;;9.52;6.68;;;;;;;12.07;100.00;92549.34;2120786;27;20114;-66
2022/08/16 03:31:29;;;;;;;7.20;5.72;;;;;;;12.02;100.00;92551.81;2115338;27;20031;-66
2022/08/16 03:32:30;;;;;;;7.90;5.82;;;;;;;12.08;100.00;92552.75;2123306;27;20050;-68
2022/08/16 03:33:31;;;;;;;9.32;6.25;;;;;;;11.86;100.00;92547.44;2123013;27;20102;-66
2022/08/16 03:34:32;;;;;;;7.00;5.80;;;;;;;11.97;100.00;92547.78;2121919;27;20016;-65
2022/08/16 03:35:35;;;;;;;7.13;5.78;;;;;;;11.84;100.00;92549.78;2119698;27;20019;-66
2022/08/16 03:36:36;;;;;;;10.98;6.68;;;;;;;11.75;100.00;92550.44;2123217;27;20023;-66
2022/08/16 03:37:42;;;;;;;8.20;6.25;;;;;;;11.83;100.00;92549.03;2123389;27;20031;-69
2022/08/16 03:38:43;;;;;;;7.63;6.88;;;;;;;11.91;100.00;92549.53;2123485;27;20027;-65
2022/08/16 03:39:43;;;;;;;8.20;6.38;;;;;;;11.97;100.00;92544.34;2123129;27;20027;-66
2022/08/16 03:40:45;;;;;;;7.40;6.35;;;;;;;12.01;100.00;92550.34;2117961;27;20089;-66
2022/08/16 03:41:46;;;;;;;9.35;7.00;;;;;;;11.91;100.00;92549.53;2123298;27;20357;-66
2022/08/16 03:42:47;;;;;;;7.47;6.30;;;;;;;12.01;100.00;92543.03;2123198;27;20068;-66
2022/08/16 03:43:48;;;;;;;7.45;6.57;;;;;;;11.94;100.00;92540.63;2122948;27;20058;-65
2022/08/16 03:44:49;;;;;;;8.32;6.90;;;;;;;11.88;100.00;92541.63;2123135;27;20877;-66
2022/08/16 03:45:53;;;;;;;8.30;6.85;;;;;;;11.89;100.00;92543.13;2121278;27;20039;-66
2022/08/16 03:46:54;;;;;;;7.75;6.72;;;;;;;11.87;100.00;92540.88;2123196;27;20030;-66
2022/08/16 03:47:55;;;;;;;8.23;6.97;;;;;;;11.73;100.00;92546.72;2123168;27;20031;-68
2022/08/16 03:48:56;;;;;;;9.68;7.15;;;;;;;11.68;100.00;92541.94;2122926;27;20027;-66
2022/08/16 03:49:57;;;;;;;8.20;6.35;;;;;;;11.74;100.00;92540.19;2123166;27;20422;-66
2022/08/16 03:50:59;;;;;;;7.65;6.72;;;;;;;11.79;100.00;92540.34;2110479;27;20031;-66
2022/08/16 03:52:01;;;;;;;9.02;7.20;;;;;;;11.77;100.00;92537.38;2123187;27;20028;-66
2022/08/16 03:53:03;;;;;;;10.30;7.65;;;;;;;11.75;100.00;92539.72;2123111;27;20091;-65
2022/08/16 03:54:04;;;;;;;8.63;6.72;;;;;;;11.84;100.00;92539.81;2122940;27;20137;-65
2022/08/16 03:55:08;;;;;;;8.23;6.43;;;;;;;11.79;100.00;92534.25;2123076;27;20031;-66
2022/08/16 03:56:10;;;;;;;8.48;6.40;;;;;;;11.75;100.00;92531.69;2123046;27;20035;-65
2022/08/16 03:57:11;;;;;;;7.45;6.57;;;;;;;11.77;100.00;92534.69;2115857;27;20015;-66
2022/08/16 03:58:12;;;;;;;8.38;6.03;;;;;;;11.83;100.00;92534.91;2122381;27;20035;-68
2022/08/16 03:59:13;;;;;;;7.38;6.68;;;;;;;11.83;100.00;92529.56;2122889;27;20461;-66
2022/08/16 04:00:17;;;;;;;8.70;6.97;;;;;;;11.74;100.00;92529.47;2122992;27;20027;-65
2022/08/16 04:01:20;;;;;;;8.70;7.20;;;;;;;11.73;100.00;92539.44;2122943;27;20053;-65
2022/08/16 04:02:21;;;;;;;8.25;7.00;;;;;;;11.56;100.00;92543.47;2114562;27;20027;-65
2022/08/16 04:03:22;;;;;;;14.10;7.10;;;;;;;11.66;100.00;92537.00;2123101;27;20753;-65
2022/08/16 04:04:23;;;;;;;7.55;6.70;;;;;;;11.57;100.00;92543.03;2122943;27;20062;-66
2022/08/16 04:05:24;;;;;;;9.55;6.82;;;;;;;11.61;100.00;92540.25;2123120;27;20062;-65
2022/08/16 04:06:25;;;;;;;12.48;7.15;;;;;;;11.65;100.00;92543.53;2123052;27;20027;-66
2022/08/16 04:07:26;;;;;;;8.02;7.07;;;;;;;11.68;100.00;92540.00;2119774;27;20050;-65
2022/08/16 04:08:30;;;;;;;8.88;6.70;;;;;;;11.71;100.00;92538.38;2122349;27;20110;-65
2022/08/16 04:09:32;;;;;;;7.88;6.93;;;;;;;11.76;100.00;92535.13;2114498;27;20118;-66
2022/08/16 04:10:33;;;;;;;7.13;6.38;;;;;;;11.75;100.00;92537.06;2123014;27;20027;-66
2022/08/16 04:11:34;;;;;;;8.68;6.38;;;;;;;11.67;100.00;92537.75;2122189;27;20035;-69
2022/08/16 04:12:36;;;;;;;7.28;6.28;;;;;;;11.54;100.00;92532.44;2120645;27;20132;-66
2022/08/16 04:13:37;;;;;;;7.05;6.10;;;;;;;11.54;100.00;92538.53;2122798;27;20174;-66
2022/08/16 04:14:38;;;;;;;8.30;6.47;;;;;;;11.51;100.00;92547.47;2128408;27;20047;-69
2022/08/16 04:15:39;;;;;;;8.73;6.47;;;;;;;11.55;100.00;92542.00;2131428;27;20114;-68
2022/08/16 04:16:40;;;;;;;6.88;6.15;;;;;;;11.55;100.00;92544.66;2131471;27;20479;-67
2022/08/16 04:17:42;;;;;;;7.22;6.47;;;;;;;11.48;100.00;92547.59;2131360;27;20018;-66
2022/08/16 04:18:43;;;;;;;6.75;6.10;;;;;;;11.53;100.00;92547.75;2124620;27;20076;-66
2022/08/16 04:19:44;;;;;;;6.88;5.75;;;;;;;11.39;100.00;92539.50;2122116;27;20066;-67
2022/08/16 04:20:45;;;;;;;7.63;6.40;;;;;;;11.32;100.00;92548.50;2121752;27;20050;-66
2022/08/16 04:21:46;;;;;;;8.10;6.88;;;;;;;11.41;100.00;92545.88;2122250;27;20489;-66
2022/08/16 04:22:47;;;;;;;9.65;7.03;;;;;;;11.30;100.00;92546.25;2122286;27;20019;-67
2022/08/16 04:23:48;;;;;;;7.53;6.82;;;;;;;11.28;100.00;92543.28;2128910;27;20039;-65
2022/08/16 04:24:49;;;;;;;7.20;6.38;;;;;;;11.26;100.00;92548.31;2131103;27;20540;-67
2022/08/16 04:25:50;;;;;;;7.07;6.38;;;;;;;11.35;100.00;92552.97;2131281;27;20049;-66
2022/08/16 04:26:50;;;;;;;6.90;6.20;;;;;;;11.37;100.00;92557.88;2122177;27;20061;-67
2022/08/16 04:27:51;;;;;;;6.50;5.90;;;;;;;11.33;100.00;92552.69;2122236;27;20042;-65
2022/08/16 04:28:52;;;;;;;7.78;6.63;;;;;;;11.43;100.00;92554.25;2131312;27;20368;-67
2022/08/16 04:29:53;;;;;;;7.18;6.32;;;;;;;11.41;100.00;92540.53;2122644;27;20026;-67
2022/08/16 04:30:54;;;;;;;10.38;6.82;;;;;;;11.44;100.00;92550.38;2131340;27;20038;-66
2022/08/16 04:31:56;;;;;;;7.60;6.80;;;;;;;11.34;100.00;92548.81;2131515;27;20034;-66
2022/08/16 04:32:57;;;;;;;7.03;6.35;;;;;;;11.42;100.00;92546.66;2131360;27;20026;-67
2022/08/16 04:33:59;;;;;;;10.13;7.13;;;;;;;11.25;100.00;92552.16;2131440;27;20026;-66
2022/08/16 04:35:00;;;;;;;7.25;6.63;;;;;;;11.22;100.00;92544.25;2126002;27;20026;-67
2022/08/16 04:36:01;;;;;;;7.45;6.63;;;;;;;11.11;100.00;92544.63;2131218;27;20101;-66
2022/08/16 04:37:02;;;;;;;9.20;6.80;;;;;;;11.01;100.00;92551.78;2131228;27;20027;-65
2022/08/16 04:38:04;;;;;;;7.60;6.68;;;;;;;11.20;100.00;92549.31;2130424;27;20116;-68
2022/08/16 04:39:05;;;;;;;6.82;6.25;;;;;;;11.18;100.00;92548.97;2131197;27;20105;-66
2022/08/16 04:40:08;;;;;;;7.68;6.57;;;;;;;11.25;100.00;92546.06;2129402;27;20027;-65
2022/08/16 04:41:09;;;;;;;9.00;7.00;;;;;;;11.27;100.00;92551.72;2131266;27;20472;-68
2022/08/16 04:42:10;;;;;;;7.55;6.75;;;;;;;11.25;100.00;92552.16;2131305;27;20019;-66
2022/08/16 04:43:13;;;;;;;8.10;6.93;;;;;;;11.24;100.00;92549.94;2131273;27;20054;-66
2022/08/16 04:44:14;;;;;;;10.93;7.45;;;;;;;11.17;100.00;92548.22;2131164;27;20464;-65
2022/08/16 04:45:16;;;;;;;7.85;7.05;;;;;;;11.19;100.00;92555.81;2124025;27;20032;-66
2022/08/16 04:46:17;;;;;;;7.90;7.13;;;;;;;11.17;100.00;92548.22;2131151;27;20408;-66
2022/08/16 04:47:18;;;;;;;8.38;6.90;;;;;;;11.29;100.00;92549.38;2131277;27;20034;-66
2022/08/16 04:48:19;;;;;;;9.07;7.50;;;;;;;11.24;100.00;92556.03;2131269;27;20031;-66
2022/08/16 04:49:20;;;;;;;7.78;7.00;;;;;;;11.24;100.00;92555.28;2131010;27;20027;-66
2022/08/16 04:50:23;;;;;;;7.88;7.00;;;;;;;11.19;100.00;92551.19;2127454;27;20019;-68
2022/08/16 04:51:24;;;;;;;8.50;7.70;;;;;;;11.21;100.00;92551.53;2131055;27;20063;-67
2022/08/16 04:52:25;;;;;;;10.88;7.90;;;;;;;11.19;100.00;92555.81;2131208;27;20026;-67